• Join FlightAware (Why Join?)
  • Login
  • US Flag 
02:46AM EDT


 

Airport Tracker/Info


-or-


 

Live Flight TrackerFlight Track Log ✈ N376RC ✈ 23-Apr-2013 ✈ KUES - KDVN

Flight Track Log - Related Links

Times and Time Zones

All times are in EDT time to prevent confusion due to time zone crossing. See the N376RC flight status page for this flight to view local times or setup timezone preferences in your user account.

Time Position Orientation Groundspeed Altitude Reporting Facility
EDT Latitude Longitude Course Direction KTS MPH feet Rate Location/Type
05:09PM 43.0500 -88.2667 236° Southwest 155 178 1,500  Level KMKE
05:10PM 43.0167 -88.3333 236° Southwest 170 196 3,700 1,560 Climbing KMKE
05:11PM 43.0028 -88.3592 234° Southwest 168 193 4,700 1,320 Climbing Chicago Center
05:12PM 42.9739 -88.4044 229° Southwest 161 185 6,200 1,500 Climbing Chicago Center
05:13PM 42.9394 -88.4611 230° Southwest 164 189 7,900 840 Climbing Chicago Center
05:14PM 42.9047 -88.5189 231° Southwest 187 215 8,000  Climbing Chicago Center
05:15PM 42.8661 -88.5828 231° Southwest 209 241 8,000  Level Chicago Center
05:16PM 42.8278 -88.6464 231° Southwest 215 247 8,000  Level Chicago Center
05:17PM 42.7889 -88.7086 230° Southwest 216 249 8,000  Level Chicago Center
05:18PM 42.7444 -88.7831 231° Southwest 216 249 8,000  Level Chicago Center
05:19PM 42.7050 -88.8458 229° Southwest 217 250 8,000  Level Chicago Center
05:20PM 42.6667 -88.9100 231° Southwest 218 251 8,000  Level Chicago Center
05:21PM 42.6281 -88.9764 232° Southwest 224 258 8,000  Level Chicago Center
05:22PM 42.5897 -89.0394 230° Southwest 217 250 8,000  Level Chicago Center
05:23PM 42.5450 -89.1142 231° Southwest 219 252 8,000  Level Chicago Center
05:24PM 42.5047 -89.1761 229° Southwest 220 253 8,000  Level Chicago Center
05:25PM 42.4661 -89.2392 230° Southwest 220 253 8,000  Level Chicago Center
05:26PM 42.4275 -89.3017 230° Southwest 218 251 8,000  Level Chicago Center
05:27PM 42.3881 -89.3633 229° Southwest 219 252 8,000  Level Chicago Center
05:28PM 42.3486 -89.4256 229° Southwest 218 251 8,000  Level Chicago Center
05:29PM 42.3047 -89.5008 232° Southwest 219 252 8,000  Level Chicago Center
05:30PM 42.2653 -89.5633 230° Southwest 220 253 8,000  Level Chicago Center
05:31PM 42.2258 -89.6247 229° Southwest 217 250 8,000  Level Chicago Center
05:32PM 42.1872 -89.6881 231° Southwest 217 250 8,000  Level Chicago Center
05:33PM 42.1481 -89.7508 230° Southwest 219 252 8,000  Level Chicago Center
05:34PM 42.1028 -89.8231 230° Southwest 216 249 8,000  Level Chicago Center
05:36PM 42.0611 -89.8817 226° Southwest 218 251 8,000 -60 Level Chicago Center
05:37PM 42.0236 -89.9406 229° Southwest 219 252 7,900 -180 Descending Chicago Center
05:38PM 41.9647 -89.9728 202° Southwest 223 257 7,700 -600 Descending Chicago Center
05:39PM 41.9061 -90.0064 203° Southwest 229 264 6,700 -1,080 Descending Chicago Center
05:40PM 41.8308 -90.0475 202° Southwest 243 280 5,500 -1,080 Descending Chicago Center
05:41PM 41.7706 -90.0825 203° Southwest 252 290 4,500 -840 Descending Chicago Center
05:43PM 41.6303 -90.1589 202° Southwest 250 288 2,900 -540 Descending Chicago Center
05:44PM 41.5678 -90.1989 206° Southwest 246 283 2,900  Level Chicago Center
05:45PM 41.5175 -90.2281 203° Southwest 223 257 2,900  Level Chicago Center
05:46PM 41.4694 -90.2542 202° Southwest 196 226 3,000  Climbing Chicago Center
05:47PM 41.4492 -90.3075 243° Southwest 184 212 3,000  Level Chicago Center
05:48PM 41.4386 -90.3819 259° West 175 201 3,100  Climbing Chicago Center
05:49PM 41.4317 -90.4375 261° West 166 191 3,100 -180 Level Chicago Center
05:50PM 41.4600 -90.4731 317° Northwest 151 174 2,800 -240 Descending Chicago Center
05:51PM 41.4917 -90.5008 327° Northwest 141 162 2,700 -180 Descending Chicago Center
05:52PM 41.5211 -90.5225 331° Northwest 131 151 2,500 -240 Descending Chicago Center
05:53PM 41.5500 -90.5431 332° Northwest 128 147 2,300 -240 Descending Chicago Center